Main page
METAR-TAF:

METAR-TAF

Airports :

London Biggin Hill, England

London Biggin Hill Airport

latitude: 51-19N, longitude: 000-02E, elevation: 183 m

Current weather observation

The report was made 25 minutes ago, at 15:20 UTC
Wind 16 kt from the South/Southwest
Temperature 11°C
Humidity 100%
Pressure 1013 hPa
Visibility 10 km or more
Broken clouds at a height of 500 ft

METAR: EGKB 231520Z 21016KT 9999 BKN005 11/11 Q1013

Time: 15:45 (15:45 UTC)

Forecast

The report was made 46 minutes ago, at 14:59 UTC
Forecast valid from 23 at 15 UTC to 23 at 23 UTC
Wind 17 kt from the South
Visibility 10 km or more
Broken clouds at a height of 700 ft
Becoming
from 23 at 15 UTC to 23 at 17 UTC
Scattered clouds at a height of 700 ft
Temporary
from 23 at 15 UTC to 23 at 23 UTC
Visibility: 6000 m
Scattered clouds at a height of 400 ft
Broken clouds at a height of 700 ft

TAF: EGKB 231459Z 2315/2323 19017KT 9999 BKN007 BECMG 2315/2317 SCT007 TEMPO 2315/2323 6000 SCT004 BKN007

Weather observations and forecasts of more than 4000 airports (METAR and TAF reports).

The available stations are represented by yellow and red dots on the map.

Hover mouse over dot to see the name of the station.

Then click to see weather observations and forecasts.

To change the map : click on the green buttons with a black cross to zoom in, on the green button with a dash to zoom out, or on the green arrows for adjacent maps.


METAR-TAF: